Airfield :
LOGIN :

Register | Disclaimer

   EN    FR    IT 

 










Legend :    VFR   Marginal VFR   IFR   Intensive IFR   Very Intensive IFR
Visi :
Ceiling :
>= 8 km
>= 3000ft
5 to 8 km
1000 to 3000 ft
1500m to 5 km
500 to 1000 ft
800 to 1500m
200 to 500 ft
< 800m
< 200 ft
Symbols :   Thunderstorms  Fog  Heavy snow  Heavy precipitations  Wind > 20 kt
SIGMETs :     Misc.  Thunderstorms  Icing  Turbulence  Mountain Waves  Volcanic Ashes







- Airport Elevation : 157 ft
- IATA code : LIL
- Download approach charts


LFQQ - Lille Lesquin

CURRENT METAR :
  • 221000Z AUTO 17015KT 3900 BR OVC008 M01/M01 Q1005 TEMPO 17020G30KT 1500 SN OVC002

EXPIRED METARs :
  • 220930Z AUTO 16013KT 1900 -SN BR BKN006 OVC011 M01/M02 Q1005 TEMPO 17020G30KT SN OVC002
  • 220900Z AUTO 16017KT 1500 -SN BR BKN006 OVC013 M02/M02 Q1005 TEMPO 17020G30KT SN OVC002
  • 220830Z AUTO 17014KT 1300 1200 R26/1900D R08/1600U -SN BR OVC005 M02/M02 Q1006 TEMPO 17020G30KT 1500 SN
  • 220800Z AUTO 16016KT 1400 1300 R26/1900N R08/1700U SN BR BKN006 OVC010 M02/M02 Q1006 TEMPO 17020G30KT 1500 SN OVC002
  • 220730Z AUTO 16015KT 3900 -SN BR OVC008 M01/M02 Q1006 TEMPO 17020G30KT 1500 SN OVC002
  • 220700Z AUTO 17014KT 5000 BR OVC008 M01/M03 Q1007 TEMPO 17020G30KT 1500 SN OVC002

TAF TAF LFQQ
Valid from the 22 at 06:00 until the 23 at 12:00 UTC


220500Z 2206/2312 17012KT 6000 OVC007
TEMPO 2206/2212 17020G30KT 1500 SN OVC002
PROB40
TEMPO 2206/2207 FZRA
TEMPO 2221/2224 1500 SHSN OVC003 BKN030TCU
BECMG 2300/2303 VRB02KT 3000 BR BKN003
BECMG 2310/2312 34012KT 5000 NSW BKN007
ATIS : +33 3 20 16 19 54
No reported NOTAMs for that airfield.



MET'MAP, your aeronautical weather chart ! - Copyright ORBIFLY December 2007 - Disclaimer

ORBIFLY MET'MAP TEAM :

Programming & Development : Alexandra Zaïnal
Concept & Development : Baudouin d'Aumeries
Co-Development & Prog : Marc-Olivier Méhu
Technical & hardware support : Manuel Goepfert

Contact : metmap@orbifly.com




SOURCES & CREDITS :

   NOAA